KSDM/SDM METAR and TAF weather

Enter ICAO airport designator
Station Type Date Time Source
KSDM METAR 2021/05/11 16:53 UTC NOAA

KSDM 111653Z 26005KT 9SM OVC016 17/10 A2996 RMK AO2 SLP144 T01670100


Station Type Date Time Source
KSDM Decoded METAR 2021/05/11 16:53 UTC NOAA

San Diego, Brown Field Municipal Airport, CA, United States (KSDM) 32-34-31N 116-59-35W 159M
May 11, 2021 - 12:53 PM EDT / 2021.05.11 1653 UTC
Wind: from the W (260 degrees) at 6 MPH (5 KT):0
Visibility: 9 mile(s):0
Sky conditions: overcast
Temperature: 62.1 F (16.7 C)
Dew Point: 50.0 F (10.0 C)
Relative Humidity: 64%
Pressure (altimeter): 29.96 in. Hg (1014 hPa)
ob: KSDM 111653Z 26005KT 9SM OVC016 17/10 A2996 RMK AO2 SLP144 T01670100
cycle: 17

Station Type Date Time Source
KSDM TAF UTC NOAA

Error!

Example: see airport list